sensor_id;sensor_type;location;lat;lon;timestamp;pressure;altitude;pressure_sealevel;temperature
69785;BMP280;14177;51.520;6.764;2023-10-31T00:01:47;99272.41;;;12.62
69785;BMP280;14177;51.520;6.764;2023-10-31T00:04:16;99273.16;;;12.50
69785;BMP280;14177;51.520;6.764;2023-10-31T00:06:43;99281.00;;;12.36
69785;BMP280;14177;51.520;6.764;2023-10-31T00:09:10;99285.09;;;12.26
69785;BMP280;14177;51.520;6.764;2023-10-31T00:11:37;99295.50;;;12.12
69785;BMP280;14177;51.520;6.764;2023-10-31T00:14:04;99298.66;;;12.03
69785;BMP280;14177;51.520;6.764;2023-10-31T00:16:51;99308.66;;;11.95
69785;BMP280;14177;51.520;6.764;2023-10-31T00:19:19;99331.69;;;11.87
69785;BMP280;14177;51.520;6.764;2023-10-31T00:21:46;99333.81;;;11.81
69785;BMP280;14177;51.520;6.764;2023-10-31T00:24:13;99342.06;;;11.73
69785;BMP280;14177;51.520;6.764;2023-10-31T00:26:39;99345.75;;;11.69
69785;BMP280;14177;51.520;6.764;2023-10-31T00:29:06;99353.72;;;11.66
69785;BMP280;14177;51.520;6.764;2023-10-31T00:31:33;99364.50;;;11.60
69785;BMP280;14177;51.520;6.764;2023-10-31T00:34:02;99375.75;;;11.61
69785;BMP280;14177;51.520;6.764;2023-10-31T00:36:29;99369.88;;;11.57
69785;BMP280;14177;51.520;6.764;2023-10-31T00:38:56;99363.84;;;11.57
69785;BMP280;14177;51.520;6.764;2023-10-31T00:41:23;99380.59;;;11.51
69785;BMP280;14177;51.520;6.764;2023-10-31T00:43:50;99398.06;;;11.49
69785;BMP280;14177;51.520;6.764;2023-10-31T00:46:18;99393.09;;;11.45
69785;BMP280;14177;51.520;6.764;2023-10-31T00:48:46;99401.16;;;11.40
69785;BMP280;14177;51.520;6.764;2023-10-31T00:51:13;99405.94;;;11.32
69785;BMP280;14177;51.520;6.764;2023-10-31T00:53:40;99412.81;;;11.33
69785;BMP280;14177;51.520;6.764;2023-10-31T00:56:07;99428.75;;;11.27
69785;BMP280;14177;51.520;6.764;2023-10-31T00:58:35;99435.03;;;11.23
69785;BMP280;14177;51.520;6.764;2023-10-31T01:01:03;99430.00;;;11.20
69785;BMP280;14177;51.520;6.764;2023-10-31T01:03:30;99431.00;;;11.18
69785;BMP280;14177;51.520;6.764;2023-10-31T01:05:57;99451.22;;;11.13
69785;BMP280;14177;51.520;6.764;2023-10-31T01:08:25;99448.09;;;11.06
69785;BMP280;14177;51.520;6.764;2023-10-31T01:10:52;99437.84;;;11.03
69785;BMP280;14177;51.520;6.764;2023-10-31T01:13:19;99446.56;;;11.02
69785;BMP280;14177;51.520;6.764;2023-10-31T01:15:46;99459.66;;;11.01
69785;BMP280;14177;51.520;6.764;2023-10-31T01:18:15;99469.19;;;11.00
69785;BMP280;14177;51.520;6.764;2023-10-31T01:20:42;99471.78;;;11.00
69785;BMP280;14177;51.520;6.764;2023-10-31T01:23:09;99476.81;;;11.03
69785;BMP280;14177;51.520;6.764;2023-10-31T01:25:36;99473.31;;;11.04
69785;BMP280;14177;51.520;6.764;2023-10-31T01:28:03;99478.59;;;11.03
69785;BMP280;14177;51.520;6.764;2023-10-31T01:30:30;99466.44;;;11.03
69785;BMP280;14177;51.520;6.764;2023-10-31T01:32:57;99466.28;;;11.06
69785;BMP280;14177;51.520;6.764;2023-10-31T01:35:24;99471.63;;;11.03
69785;BMP280;14177;51.520;6.764;2023-10-31T01:37:51;99482.03;;;11.03
69785;BMP280;14177;51.520;6.764;2023-10-31T01:40:18;99482.94;;;11.02
69785;BMP280;14177;51.520;6.764;2023-10-31T01:42:45;99478.50;;;11.04
69785;BMP280;14177;51.520;6.764;2023-10-31T01:45:12;99488.84;;;11.06
69785;BMP280;14177;51.520;6.764;2023-10-31T01:47:40;99490.41;;;11.08
69785;BMP280;14177;51.520;6.764;2023-10-31T01:50:07;99483.53;;;11.07
69785;BMP280;14177;51.520;6.764;2023-10-31T01:52:37;99487.06;;;11.06
69785;BMP280;14177;51.520;6.764;2023-10-31T01:55:06;99499.13;;;11.07
69785;BMP280;14177;51.520;6.764;2023-10-31T01:57:34;99503.41;;;11.08
69785;BMP280;14177;51.520;6.764;2023-10-31T02:00:01;99506.88;;;11.09
69785;BMP280;14177;51.520;6.764;2023-10-31T02:02:40;99511.31;;;11.07
69785;BMP280;14177;51.520;6.764;2023-10-31T02:05:08;99510.44;;;11.06
69785;BMP280;14177;51.520;6.764;2023-10-31T02:07:36;99511.38;;;11.05
69785;BMP280;14177;51.520;6.764;2023-10-31T02:10:03;99512.13;;;11.07
69785;BMP280;14177;51.520;6.764;2023-10-31T02:12:36;99517.16;;;11.10
69785;BMP280;14177;51.520;6.764;2023-10-31T02:15:04;99509.38;;;11.10
69785;BMP280;14177;51.520;6.764;2023-10-31T02:17:31;99514.56;;;11.10
69785;BMP280;14177;51.520;6.764;2023-10-31T02:19:58;99512.06;;;11.09
69785;BMP280;14177;51.520;6.764;2023-10-31T02:22:25;99512.13;;;11.07
69785;BMP280;14177;51.520;6.764;2023-10-31T02:24:52;99513.03;;;11.06
69785;BMP280;14177;51.520;6.764;2023-10-31T02:27:19;99509.84;;;11.01
69785;BMP280;14177;51.520;6.764;2023-10-31T02:29:46;99514.38;;;10.98
69785;BMP280;14177;51.520;6.764;2023-10-31T02:32:13;99516.28;;;10.94
69785;BMP280;14177;51.520;6.764;2023-10-31T02:34:40;99513.88;;;10.91
69785;BMP280;14177;51.520;6.764;2023-10-31T02:37:07;99515.59;;;10.91
69785;BMP280;14177;51.520;6.764;2023-10-31T02:39:35;99514.03;;;10.88
69785;BMP280;14177;51.520;6.764;2023-10-31T02:42:02;99520.03;;;10.89
69785;BMP280;14177;51.520;6.764;2023-10-31T02:44:29;99516.69;;;10.87
69785;BMP280;14177;51.520;6.764;2023-10-31T02:46:56;99513.25;;;10.87
69785;BMP280;14177;51.520;6.764;2023-10-31T02:49:23;99516.63;;;10.88
69785;BMP280;14177;51.520;6.764;2023-10-31T02:51:50;99518.34;;;10.88
69785;BMP280;14177;51.520;6.764;2023-10-31T02:54:17;99509.66;;;10.89
69785;BMP280;14177;51.520;6.764;2023-10-31T02:56:44;99514.78;;;10.90
69785;BMP280;14177;51.520;6.764;2023-10-31T02:59:11;99515.53;;;10.92
69785;BMP280;14177;51.520;6.764;2023-10-31T03:01:38;99512.00;;;10.93
69785;BMP280;14177;51.520;6.764;2023-10-31T03:04:06;99511.00;;;10.96
69785;BMP280;14177;51.520;6.764;2023-10-31T03:06:33;99516.22;;;10.96
69785;BMP280;14177;51.520;6.764;2023-10-31T03:09:00;99509.41;;;10.93
69785;BMP280;14177;51.520;6.764;2023-10-31T03:11:28;99518.72;;;10.97
69785;BMP280;14177;51.520;6.764;2023-10-31T03:13:56;99516.06;;;10.99
69785;BMP280;14177;51.520;6.764;2023-10-31T03:16:25;99513.53;;;10.97
69785;BMP280;14177;51.520;6.764;2023-10-31T03:18:52;99517.03;;;10.96
69785;BMP280;14177;51.520;6.764;2023-10-31T03:21:20;99523.91;;;10.97
69785;BMP280;14177;51.520;6.764;2023-10-31T03:23:49;99508.31;;;10.97
69785;BMP280;14177;51.520;6.764;2023-10-31T03:26:17;99522.06;;;10.99
69785;BMP280;14177;51.520;6.764;2023-10-31T03:28:45;99511.63;;;11.01
69785;BMP280;14177;51.520;6.764;2023-10-31T03:31:13;99509.78;;;11.03
69785;BMP280;14177;51.520;6.764;2023-10-31T03:33:41;99506.31;;;11.02
69785;BMP280;14177;51.520;6.764;2023-10-31T03:36:09;99517.47;;;11.04
69785;BMP280;14177;51.520;6.764;2023-10-31T03:38:36;99515.56;;;11.08
69785;BMP280;14177;51.520;6.764;2023-10-31T03:41:04;99515.41;;;11.11
69785;BMP280;14177;51.520;6.764;2023-10-31T03:43:32;99528.41;;;11.11
69785;BMP280;14177;51.520;6.764;2023-10-31T03:45:59;99527.56;;;11.10
69785;BMP280;14177;51.520;6.764;2023-10-31T03:48:27;99524.81;;;11.13
69785;BMP280;14177;51.520;6.764;2023-10-31T03:50:54;99543.84;;;11.14
69785;BMP280;14177;51.520;6.764;2023-10-31T03:53:20;99536.97;;;11.13
69785;BMP280;14177;51.520;6.764;2023-10-31T03:55:47;99528.31;;;11.12
69785;BMP280;14177;51.520;6.764;2023-10-31T03:58:14;99544.66;;;11.14
69785;BMP280;14177;51.520;6.764;2023-10-31T04:00:41;99551.53;;;11.15
69785;BMP280;14177;51.520;6.764;2023-10-31T04:03:09;99548.94;;;11.15
69785;BMP280;14177;51.520;6.764;2023-10-31T04:05:36;99548.03;;;11.16
69785;BMP280;14177;51.520;6.764;2023-10-31T04:08:04;99553.22;;;11.16
69785;BMP280;14177;51.520;6.764;2023-10-31T04:10:31;99558.34;;;11.18
69785;BMP280;14177;51.520;6.764;2023-10-31T04:12:58;99558.44;;;11.16
69785;BMP280;14177;51.520;6.764;2023-10-31T04:15:25;99560.19;;;11.16
69785;BMP280;14177;51.520;6.764;2023-10-31T04:17:52;99569.75;;;11.15
69785;BMP280;14177;51.520;6.764;2023-10-31T04:20:20;99563.72;;;11.15
69785;BMP280;14177;51.520;6.764;2023-10-31T04:22:47;99568.81;;;11.16
69785;BMP280;14177;51.520;6.764;2023-10-31T04:25:14;99587.94;;;11.15
69785;BMP280;14177;51.520;6.764;2023-10-31T04:27:41;99576.78;;;11.13
69785;BMP280;14177;51.520;6.764;2023-10-31T04:30:08;99568.22;;;11.11
69785;BMP280;14177;51.520;6.764;2023-10-31T04:32:38;99579.53;;;11.10
69785;BMP280;14177;51.520;6.764;2023-10-31T04:35:05;99569.22;;;11.09
69785;BMP280;14177;51.520;6.764;2023-10-31T04:37:32;99578.00;;;11.06
69785;BMP280;14177;51.520;6.764;2023-10-31T04:40:01;99594.50;;;11.05
69785;BMP280;14177;51.520;6.764;2023-10-31T04:42:28;99590.06;;;11.07
69785;BMP280;14177;51.520;6.764;2023-10-31T04:44:55;99592.00;;;11.04
69785;BMP280;14177;51.520;6.764;2023-10-31T04:47:22;99600.63;;;11.04
69785;BMP280;14177;51.520;6.764;2023-10-31T04:49:49;99598.13;;;11.03
69785;BMP280;14177;51.520;6.764;2023-10-31T04:52:17;99599.88;;;11.02
69785;BMP280;14177;51.520;6.764;2023-10-31T04:54:44;99610.09;;;11.05
69785;BMP280;14177;51.520;6.764;2023-10-31T04:57:11;99604.00;;;11.06
69785;BMP280;14177;51.520;6.764;2023-10-31T04:59:38;99606.75;;;11.03
69785;BMP280;14177;51.520;6.764;2023-10-31T05:02:05;99623.19;;;11.04
69785;BMP280;14177;51.520;6.764;2023-10-31T05:04:32;99611.94;;;11.03
69785;BMP280;14177;51.520;6.764;2023-10-31T05:06:59;99625.69;;;11.05
69785;BMP280;14177;51.520;6.764;2023-10-31T05:09:26;99617.91;;;11.05
69785;BMP280;14177;51.520;6.764;2023-10-31T05:11:53;99624.00;;;11.04
69785;BMP280;14177;51.520;6.764;2023-10-31T05:14:20;99623.09;;;11.05
69785;BMP280;14177;51.520;6.764;2023-10-31T05:16:47;99635.25;;;11.05
69785;BMP280;14177;51.520;6.764;2023-10-31T05:19:14;99633.50;;;11.05
69785;BMP280;14177;51.520;6.764;2023-10-31T05:21:42;99636.09;;;11.05
69785;BMP280;14177;51.520;6.764;2023-10-31T05:24:09;99641.38;;;11.04
69785;BMP280;14177;51.520;6.764;2023-10-31T05:26:36;99639.69;;;11.03
69785;BMP280;14177;51.520;6.764;2023-10-31T05:29:04;99643.13;;;11.03
69785;BMP280;14177;51.520;6.764;2023-10-31T05:31:30;99650.75;;;11.06
69785;BMP280;14177;51.520;6.764;2023-10-31T05:33:57;99647.41;;;11.04
69785;BMP280;14177;51.520;6.764;2023-10-31T05:36:25;99649.22;;;11.02
69785;BMP280;14177;51.520;6.764;2023-10-31T05:38:52;99658.50;;;11.08
69785;BMP280;14177;51.520;6.764;2023-10-31T05:41:19;99668.03;;;11.07
69785;BMP280;14177;51.520;6.764;2023-10-31T05:43:47;99674.75;;;11.11
69785;BMP280;14177;51.520;6.764;2023-10-31T05:46:14;99676.53;;;11.11
69785;BMP280;14177;51.520;6.764;2023-10-31T05:48:45;99674.84;;;11.10
69785;BMP280;14177;51.520;6.764;2023-10-31T05:51:17;99668.66;;;11.12
69785;BMP280;14177;51.520;6.764;2023-10-31T05:53:47;99673.03;;;11.12
69785;BMP280;14177;51.520;6.764;2023-10-31T05:56:16;99678.28;;;11.10
69785;BMP280;14177;51.520;6.764;2023-10-31T05:58:43;99679.97;;;11.11
69785;BMP280;14177;51.520;6.764;2023-10-31T06:01:10;99695.56;;;11.11
69785;BMP280;14177;51.520;6.764;2023-10-31T06:03:41;99692.91;;;11.13
69785;BMP280;14177;51.520;6.764;2023-10-31T06:06:09;99698.16;;;11.11
69785;BMP280;14177;51.520;6.764;2023-10-31T06:08:36;99701.53;;;11.13
69785;BMP280;14177;51.520;6.764;2023-10-31T06:11:03;99707.56;;;11.14
69785;BMP280;14177;51.520;6.764;2023-10-31T06:13:31;99704.22;;;11.12
69785;BMP280;14177;51.520;6.764;2023-10-31T06:16:00;99718.03;;;11.12
69785;BMP280;14177;51.520;6.764;2023-10-31T06:18:28;99723.31;;;11.11
69785;BMP280;14177;51.520;6.764;2023-10-31T06:20:56;99721.63;;;11.10
69785;BMP280;14177;51.520;6.764;2023-10-31T06:23:23;99725.97;;;11.09
69785;BMP280;14177;51.520;6.764;2023-10-31T06:25:50;99726.84;;;11.10
69785;BMP280;14177;51.520;6.764;2023-10-31T06:28:17;99730.19;;;11.12
69785;BMP280;14177;51.520;6.764;2023-10-31T06:30:44;99729.34;;;11.11
69785;BMP280;14177;51.520;6.764;2023-10-31T06:33:11;99748.44;;;11.10
69785;BMP280;14177;51.520;6.764;2023-10-31T06:35:39;99741.34;;;11.14
69785;BMP280;14177;51.520;6.764;2023-10-31T06:38:06;99742.28;;;11.13
69785;BMP280;14177;51.520;6.764;2023-10-31T06:40:34;99745.69;;;11.13
69785;BMP280;14177;51.520;6.764;2023-10-31T06:43:01;99742.19;;;11.14
69785;BMP280;14177;51.520;6.764;2023-10-31T06:45:28;99752.66;;;11.13
69785;BMP280;14177;51.520;6.764;2023-10-31T06:47:55;99746.63;;;11.12
69785;BMP280;14177;51.520;6.764;2023-10-31T06:50:23;99757.88;;;11.13
69785;BMP280;14177;51.520;6.764;2023-10-31T06:52:51;99759.59;;;11.12
69785;BMP280;14177;51.520;6.764;2023-10-31T06:55:18;99765.72;;;11.11
69785;BMP280;14177;51.520;6.764;2023-10-31T06:57:45;99769.19;;;11.12
69785;BMP280;14177;51.520;6.764;2023-10-31T07:00:13;99762.22;;;11.12
69785;BMP280;14177;51.520;6.764;2023-10-31T07:02:40;99770.88;;;11.13
69785;BMP280;14177;51.520;6.764;2023-10-31T07:05:07;99770.91;;;11.11
69785;BMP280;14177;51.520;6.764;2023-10-31T07:07:36;99769.25;;;11.10
69785;BMP280;14177;51.520;6.764;2023-10-31T07:10:03;99774.44;;;11.10
69785;BMP280;14177;51.520;6.764;2023-10-31T07:12:30;99773.53;;;11.11
69785;BMP280;14177;51.520;6.764;2023-10-31T07:14:57;99776.13;;;11.11
69785;BMP280;14177;51.520;6.764;2023-10-31T07:17:27;99777.88;;;11.11
69785;BMP280;14177;51.520;6.764;2023-10-31T07:19:54;99788.19;;;11.12
69785;BMP280;14177;51.520;6.764;2023-10-31T07:22:22;99796.09;;;11.11
69785;BMP280;14177;51.520;6.764;2023-10-31T07:24:51;99791.72;;;11.11
69785;BMP280;14177;51.520;6.764;2023-10-31T07:27:18;99799.38;;;11.14
69785;BMP280;14177;51.520;6.764;2023-10-31T07:29:46;99790.66;;;11.15
69785;BMP280;14177;51.520;6.764;2023-10-31T07:32:13;99794.94;;;11.16
69785;BMP280;14177;51.520;6.764;2023-10-31T07:34:41;99801.81;;;11.17
69785;BMP280;14177;51.520;6.764;2023-10-31T07:37:11;99802.59;;;11.19
69785;BMP280;14177;51.520;6.764;2023-10-31T07:39:38;99809.41;;;11.22
69785;BMP280;14177;51.520;6.764;2023-10-31T07:42:06;99806.72;;;11.23
69785;BMP280;14177;51.520;6.764;2023-10-31T07:44:33;99811.88;;;11.25
69785;BMP280;14177;51.520;6.764;2023-10-31T07:47:00;99819.50;;;11.28
69785;BMP280;14177;51.520;6.764;2023-10-31T07:49:27;99829.81;;;11.29
69785;BMP280;14177;51.520;6.764;2023-10-31T07:51:54;99825.41;;;11.31
69785;BMP280;14177;51.520;6.764;2023-10-31T07:54:21;99821.09;;;11.30
69785;BMP280;14177;51.520;6.764;2023-10-31T07:56:48;99826.94;;;11.35
69785;BMP280;14177;51.520;6.764;2023-10-31T07:59:15;99824.22;;;11.37
69785;BMP280;14177;51.520;6.764;2023-10-31T08:01:42;99816.22;;;11.41
69785;BMP280;14177;51.520;6.764;2023-10-31T08:04:09;99817.00;;;11.43
69785;BMP280;14177;51.520;6.764;2023-10-31T08:06:36;99822.97;;;11.45
69785;BMP280;14177;51.520;6.764;2023-10-31T08:09:03;99828.94;;;11.47
69785;BMP280;14177;51.520;6.764;2023-10-31T08:11:34;99829.69;;;11.49
69785;BMP280;14177;51.520;6.764;2023-10-31T08:14:02;99833.06;;;11.51
69785;BMP280;14177;51.520;6.764;2023-10-31T08:16:29;99835.66;;;11.51
69785;BMP280;14177;51.520;6.764;2023-10-31T08:18:56;99826.94;;;11.52
69785;BMP280;14177;51.520;6.764;2023-10-31T08:21:23;99827.88;;;11.51
69785;BMP280;14177;51.520;6.764;2023-10-31T08:23:49;99840.78;;;11.53
69785;BMP280;14177;51.520;6.764;2023-10-31T08:26:16;99833.06;;;11.51
69785;BMP280;14177;51.520;6.764;2023-10-31T08:28:43;99836.44;;;11.53
69785;BMP280;14177;51.520;6.764;2023-10-31T08:31:10;99833.72;;;11.56
69785;BMP280;14177;51.520;6.764;2023-10-31T08:33:37;99839.44;;;11.63
69785;BMP280;14177;51.520;6.764;2023-10-31T08:36:05;99837.53;;;11.66
69785;BMP280;14177;51.520;6.764;2023-10-31T08:38:33;99833.09;;;11.68
69785;BMP280;14177;51.520;6.764;2023-10-31T08:41:00;99845.16;;;11.69
69785;BMP280;14177;51.520;6.764;2023-10-31T08:43:27;99844.97;;;11.74
69785;BMP280;14177;51.520;6.764;2023-10-31T08:45:54;99848.25;;;11.77
69785;BMP280;14177;51.520;6.764;2023-10-31T08:48:21;99843.66;;;11.82
69785;BMP280;14177;51.520;6.764;2023-10-31T08:50:48;99853.06;;;11.85
69785;BMP280;14177;51.520;6.764;2023-10-31T08:53:16;99853.91;;;11.85
69785;BMP280;14177;51.520;6.764;2023-10-31T08:55:43;99857.28;;;11.87
69785;BMP280;14177;51.520;6.764;2023-10-31T08:58:12;99868.28;;;11.92
69785;BMP280;14177;51.520;6.764;2023-10-31T09:00:45;99864.78;;;11.93
69785;BMP280;14177;51.520;6.764;2023-10-31T09:03:12;99881.00;;;11.98
69785;BMP280;14177;51.520;6.764;2023-10-31T09:05:40;99882.53;;;12.02
69785;BMP280;14177;51.520;6.764;2023-10-31T09:08:07;99884.88;;;12.07
69785;BMP280;14177;51.520;6.764;2023-10-31T09:10:36;99886.25;;;12.13
69785;BMP280;14177;51.520;6.764;2023-10-31T09:13:06;99897.97;;;12.22
69785;BMP280;14177;51.520;6.764;2023-10-31T09:15:33;99901.72;;;12.33
69785;BMP280;14177;51.520;6.764;2023-10-31T09:18:00;99898.69;;;12.41
69785;BMP280;14177;51.520;6.764;2023-10-31T09:20:27;99901.50;;;12.70
69785;BMP280;14177;51.520;6.764;2023-10-31T09:22:56;99900.97;;;12.79
69785;BMP280;14177;51.520;6.764;2023-10-31T09:25:23;99915.94;;;12.76
69785;BMP280;14177;51.520;6.764;2023-10-31T09:27:50;99921.78;;;12.64
69785;BMP280;14177;51.520;6.764;2023-10-31T09:30:17;99931.25;;;12.49
69785;BMP280;14177;51.520;6.764;2023-10-31T09:32:44;99929.94;;;12.41
69785;BMP280;14177;51.520;6.764;2023-10-31T09:35:11;99932.25;;;12.47
69785;BMP280;14177;51.520;6.764;2023-10-31T09:37:39;99935.94;;;12.43
69785;BMP280;14177;51.520;6.764;2023-10-31T09:40:07;99937.75;;;12.41
69785;BMP280;14177;51.520;6.764;2023-10-31T09:42:34;99945.56;;;12.41
69785;BMP280;14177;51.520;6.764;2023-10-31T09:45:01;99948.28;;;12.39
69785;BMP280;14177;51.520;6.764;2023-10-31T09:47:30;99952.06;;;12.34
69785;BMP280;14177;51.520;6.764;2023-10-31T09:49:59;99962.81;;;12.26
69785;BMP280;14177;51.520;6.764;2023-10-31T09:52:26;99964.19;;;12.16
69785;BMP280;14177;51.520;6.764;2023-10-31T09:54:54;99972.09;;;12.15
69785;BMP280;14177;51.520;6.764;2023-10-31T09:57:21;99969.66;;;12.12
69785;BMP280;14177;51.520;6.764;2023-10-31T09:59:48;99979.16;;;12.13
69785;BMP280;14177;51.520;6.764;2023-10-31T10:02:15;99980.06;;;12.12
69785;BMP280;14177;51.520;6.764;2023-10-31T10:04:42;99984.66;;;12.07
69785;BMP280;14177;51.520;6.764;2023-10-31T10:07:15;99989.72;;;12.10
69785;BMP280;14177;51.520;6.764;2023-10-31T10:09:45;99990.94;;;12.20
69785;BMP280;14177;51.520;6.764;2023-10-31T10:12:14;99987.66;;;12.33
69785;BMP280;14177;51.520;6.764;2023-10-31T10:14:44;99995.66;;;12.46
69785;BMP280;14177;51.520;6.764;2023-10-31T10:17:23;100019.66;;;12.52
69785;BMP280;14177;51.520;6.764;2023-10-31T10:20:10;100014.47;;;12.52
69785;BMP280;14177;51.520;6.764;2023-10-31T10:22:42;100019.72;;;12.51
69785;BMP280;14177;51.520;6.764;2023-10-31T10:25:12;100026.00;;;12.47
69785;BMP280;14177;51.520;6.764;2023-10-31T10:27:41;100021.09;;;12.41
69785;BMP280;14177;51.520;6.764;2023-10-31T10:30:10;100030.09;;;12.35
69785;BMP280;14177;51.520;6.764;2023-10-31T10:32:38;100031.84;;;12.35
69785;BMP280;14177;51.520;6.764;2023-10-31T10:35:06;100039.56;;;12.36
69785;BMP280;14177;51.520;6.764;2023-10-31T10:37:37;100047.34;;;12.38
69785;BMP280;14177;51.520;6.764;2023-10-31T10:40:10;100043.88;;;12.37
69785;BMP280;14177;51.520;6.764;2023-10-31T10:42:45;100041.19;;;12.39
69785;BMP280;14177;51.520;6.764;2023-10-31T10:45:16;100054.13;;;12.40
69785;BMP280;14177;51.520;6.764;2023-10-31T10:47:48;100037.28;;;12.47
69785;BMP280;14177;51.520;6.764;2023-10-31T10:50:19;100042.03;;;12.56
69785;BMP280;14177;51.520;6.764;2023-10-31T10:53:07;100035.19;;;12.71
69785;BMP280;14177;51.520;6.764;2023-10-31T10:55:45;100050.72;;;12.89
69785;BMP280;14177;51.520;6.764;2023-10-31T10:58:34;100038.88;;;13.01
69785;BMP280;14177;51.520;6.764;2023-10-31T11:01:04;100048.91;;;13.08
69785;BMP280;14177;51.520;6.764;2023-10-31T11:03:32;100050.53;;;13.11
69785;BMP280;14177;51.520;6.764;2023-10-31T11:06:00;100046.91;;;13.13
69785;BMP280;14177;51.520;6.764;2023-10-31T11:08:28;100047.66;;;13.15
69785;BMP280;14177;51.520;6.764;2023-10-31T11:10:55;100053.53;;;13.19
69785;BMP280;14177;51.520;6.764;2023-10-31T11:13:24;100052.78;;;13.17
69785;BMP280;14177;51.520;6.764;2023-10-31T11:15:57;100059.69;;;13.18
69785;BMP280;14177;51.520;6.764;2023-10-31T11:18:27;100058.84;;;13.17
69785;BMP280;14177;51.520;6.764;2023-10-31T11:20:54;100054.72;;;13.13
69785;BMP280;14177;51.520;6.764;2023-10-31T11:23:22;100058.09;;;13.15
69785;BMP280;14177;51.520;6.764;2023-10-31T11:25:52;100057.16;;;13.16
69785;BMP280;14177;51.520;6.764;2023-10-31T11:28:20;100058.00;;;13.17
69785;BMP280;14177;51.520;6.764;2023-10-31T11:30:50;100056.38;;;13.46
69785;BMP280;14177;51.520;6.764;2023-10-31T11:33:20;100063.81;;;13.85
69785;BMP280;14177;51.520;6.764;2023-10-31T11:36:00;100055.13;;;14.00
69785;BMP280;14177;51.520;6.764;2023-10-31T11:38:36;100058.00;;;14.26
69785;BMP280;14177;51.520;6.764;2023-10-31T11:41:05;100063.97;;;14.28
69785;BMP280;14177;51.520;6.764;2023-10-31T11:46:18;100064.66;;;14.16
69785;BMP280;14177;51.520;6.764;2023-10-31T11:48:53;100058.16;;;14.08
69785;BMP280;14177;51.520;6.764;2023-10-31T11:51:20;100057.81;;;13.98
69785;BMP280;14177;51.520;6.764;2023-10-31T11:53:50;100070.13;;;13.96
69785;BMP280;14177;51.520;6.764;2023-10-31T11:56:20;100062.56;;;13.92
69785;BMP280;14177;51.520;6.764;2023-10-31T11:59:03;100066.53;;;13.83
69785;BMP280;14177;51.520;6.764;2023-10-31T12:01:30;100063.56;;;13.74
69785;BMP280;14177;51.520;6.764;2023-10-31T12:03:57;100066.44;;;13.69
69785;BMP280;14177;51.520;6.764;2023-10-31T12:06:25;100075.19;;;13.68
69785;BMP280;14177;51.520;6.764;2023-10-31T12:08:52;100072.81;;;13.64
69785;BMP280;14177;51.520;6.764;2023-10-31T12:11:22;100073.66;;;13.64
69785;BMP280;14177;51.520;6.764;2023-10-31T12:14:01;100073.50;;;13.67
69785;BMP280;14177;51.520;6.764;2023-10-31T12:16:33;100073.16;;;13.73
69785;BMP280;14177;51.520;6.764;2023-10-31T12:19:04;100078.22;;;13.76
69785;BMP280;14177;51.520;6.764;2023-10-31T12:21:49;100087.03;;;13.74
69785;BMP280;14177;51.520;6.764;2023-10-31T12:24:18;100084.44;;;13.74
69785;BMP280;14177;51.520;6.764;2023-10-31T12:26:46;100084.38;;;13.75
69785;BMP280;14177;51.520;6.764;2023-10-31T12:29:18;100087.81;;;13.76
69785;BMP280;14177;51.520;6.764;2023-10-31T12:31:51;100086.66;;;13.81
69785;BMP280;14177;51.520;6.764;2023-10-31T12:34:25;100094.22;;;13.86
69785;BMP280;14177;51.520;6.764;2023-10-31T12:36:53;100088.13;;;13.85
69785;BMP280;14177;51.520;6.764;2023-10-31T12:39:26;100090.50;;;13.90
69785;BMP280;14177;51.520;6.764;2023-10-31T12:41:54;100089.31;;;13.95
69785;BMP280;14177;51.520;6.764;2023-10-31T12:44:26;100092.63;;;13.99
69785;BMP280;14177;51.520;6.764;2023-10-31T12:46:55;100085.63;;;13.99
69785;BMP280;14177;51.520;6.764;2023-10-31T12:49:22;100092.69;;;13.97
69785;BMP280;14177;51.520;6.764;2023-10-31T12:52:04;100078.88;;;13.95
69785;BMP280;14177;51.520;6.764;2023-10-31T12:57:07;100085.44;;;14.02
69785;BMP280;14177;51.520;6.764;2023-10-31T12:59:36;100069.25;;;14.27
69785;BMP280;14177;51.520;6.764;2023-10-31T13:02:05;100080.72;;;14.40
69785;BMP280;14177;51.520;6.764;2023-10-31T13:04:33;100076.81;;;14.47
69785;BMP280;14177;51.520;6.764;2023-10-31T13:07:03;100082.75;;;14.64
69785;BMP280;14177;51.520;6.764;2023-10-31T13:09:36;100074.88;;;14.79
69785;BMP280;14177;51.520;6.764;2023-10-31T13:12:07;100076.91;;;14.74
69785;BMP280;14177;51.520;6.764;2023-10-31T13:14:35;100078.94;;;14.69
69785;BMP280;14177;51.520;6.764;2023-10-31T13:17:03;100096.00;;;14.61
69785;BMP280;14177;51.520;6.764;2023-10-31T13:19:31;100075.53;;;14.54
69785;BMP280;14177;51.520;6.764;2023-10-31T13:21:59;100096.56;;;14.52
69785;BMP280;14177;51.520;6.764;2023-10-31T13:24:26;100096.69;;;14.64
69785;BMP280;14177;51.520;6.764;2023-10-31T13:26:53;100098.94;;;14.70
69785;BMP280;14177;51.520;6.764;2023-10-31T13:29:20;100085.53;;;14.61
69785;BMP280;14177;51.520;6.764;2023-10-31T13:31:48;100091.31;;;14.52
69785;BMP280;14177;51.520;6.764;2023-10-31T13:34:15;100086.09;;;14.52
69785;BMP280;14177;51.520;6.764;2023-10-31T13:36:42;100088.94;;;14.77
69785;BMP280;14177;51.520;6.764;2023-10-31T13:39:11;100083.28;;;15.28
69785;BMP280;14177;51.520;6.764;2023-10-31T13:41:38;100093.28;;;15.35
69785;BMP280;14177;51.520;6.764;2023-10-31T13:44:05;100085.63;;;15.60
69785;BMP280;14177;51.520;6.764;2023-10-31T13:46:33;100085.13;;;15.54
69785;BMP280;14177;51.520;6.764;2023-10-31T13:49:00;100085.03;;;15.27
69785;BMP280;14177;51.520;6.764;2023-10-31T13:51:27;100089.09;;;15.03
69785;BMP280;14177;51.520;6.764;2023-10-31T13:53:54;100096.13;;;15.17
69785;BMP280;14177;51.520;6.764;2023-10-31T13:56:21;100087.34;;;15.18
69785;BMP280;14177;51.520;6.764;2023-10-31T13:58:48;100083.50;;;15.09
69785;BMP280;14177;51.520;6.764;2023-10-31T14:01:15;100088.53;;;14.98
69785;BMP280;14177;51.520;6.764;2023-10-31T14:03:42;100088.41;;;14.86
69785;BMP280;14177;51.520;6.764;2023-10-31T14:06:12;100080.19;;;14.78
69785;BMP280;14177;51.520;6.764;2023-10-31T14:08:39;100098.06;;;14.70
69785;BMP280;14177;51.520;6.764;2023-10-31T14:11:06;100106.94;;;14.67
69785;BMP280;14177;51.520;6.764;2023-10-31T14:13:37;100102.72;;;14.65
69785;BMP280;14177;51.520;6.764;2023-10-31T14:16:05;100094.22;;;14.91
69785;BMP280;14177;51.520;6.764;2023-10-31T14:18:33;100115.22;;;15.47